Time;durP1;ratioP1;P1;durP2;ratioP2;P2;SDS_P1;SDS_P2;PMS_P1;PMS_P2;Temp;Humidity;BMP_temperature;BMP_pressure;BME280_temperature;BME280_humidity;BME280_pressure;Samples;Min_cycle;Max_cycle;Signal;HPM_P1;HPM_P2
2024/02/03 00:00:07;;;;;;;12.67;7.77;;;2.20;99.90;;;;;;4973446;28;20667;-57
2024/02/03 00:02:33;;;;;;;20.73;8.47;;;2.20;99.90;;;;;;4972224;28;20512;-55
2024/02/03 00:04:58;;;;;;;11.20;7.20;;;2.20;99.90;;;;;;4971015;28;20256;-57
2024/02/03 00:07:24;;;;;;;16.83;8.60;;;2.20;99.90;;;;;;4967338;28;20458;-56
2024/02/03 00:09:50;;;;;;;13.83;7.77;;;2.20;99.90;;;;;;4975236;28;20188;-57
2024/02/03 00:12:18;;;;;;;11.50;8.10;;;2.20;99.90;;;;;;4978876;28;20412;-56
2024/02/03 00:14:43;;;;;;;13.70;7.60;;;2.20;99.90;;;;;;4972839;28;20194;-57
2024/02/03 00:17:09;;;;;;;13.13;7.17;;;2.20;99.90;;;;;;4970790;28;20428;-57
2024/02/03 00:19:35;;;;;;;10.80;6.77;;;2.20;99.90;;;;;;4974046;28;20188;-59
2024/02/03 00:22:00;;;;;;;8.90;5.93;;;2.20;99.90;;;;;;4973500;28;20255;-60
2024/02/03 00:24:26;;;;;;;18.13;7.97;;;2.20;99.90;;;;;;4966649;28;20204;-57
2024/02/03 00:26:53;;;;;;;13.67;6.23;;;2.10;99.90;;;;;;4973461;28;20256;-57
2024/02/03 00:29:19;;;;;;;10.80;6.43;;;2.10;99.90;;;;;;4970402;28;20224;-57
2024/02/03 00:31:44;;;;;;;11.60;6.20;;;2.10;99.90;;;;;;4972816;28;20447;-57
2024/02/03 00:34:10;;;;;;;14.33;6.03;;;2.00;99.90;;;;;;4966488;28;20940;-55
2024/02/03 00:36:35;;;;;;;11.37;6.77;;;2.00;99.90;;;;;;4964677;28;20182;-57
2024/02/03 00:39:02;;;;;;;9.33;6.17;;;2.00;99.90;;;;;;4981665;28;20234;-56
2024/02/03 00:41:28;;;;;;;10.27;5.53;;;2.00;99.90;;;;;;4969537;28;20171;-56
2024/02/03 00:43:54;;;;;;;7.60;5.70;;;1.90;99.90;;;;;;4971277;28;21006;-56
2024/02/03 00:46:19;;;;;;;11.77;7.40;;;1.90;99.90;;;;;;4979767;28;20308;-55
2024/02/03 00:48:45;;;;;;;8.07;5.37;;;1.90;99.90;;;;;;4973325;28;20181;-56
2024/02/03 00:51:12;;;;;;;8.83;5.93;;;1.90;99.90;;;;;;4970684;28;20182;-57
2024/02/03 00:53:44;;;;;;;9.67;6.37;;;1.90;99.90;;;;;;4969299;28;20555;-58
2024/02/03 00:56:10;;;;;;;7.37;5.60;;;1.90;99.90;;;;;;4968849;28;20453;-56
2024/02/03 00:58:36;;;;;;;11.30;7.00;;;1.90;99.90;;;;;;4970773;28;20952;-59
2024/02/03 01:01:02;;;;;;;10.73;6.80;;;1.90;99.90;;;;;;4977611;28;20428;-58
2024/02/03 01:03:27;;;;;;;13.33;7.73;;;1.90;99.90;;;;;;4973754;28;20800;-56
2024/02/03 01:05:53;;;;;;;11.63;7.33;;;1.90;99.90;;;;;;4975247;28;20227;-56
2024/02/03 01:08:19;;;;;;;9.43;7.10;;;1.90;99.90;;;;;;4971592;28;20179;-56
2024/02/03 01:10:46;;;;;;;14.27;7.50;;;1.90;99.90;;;;;;4971034;28;20185;-56
2024/02/03 01:13:12;;;;;;;10.47;6.60;;;1.90;99.90;;;;;;4973654;28;20495;-56
2024/02/03 01:15:37;;;;;;;10.17;6.80;;;1.90;99.90;;;;;;4972502;28;20913;-56
2024/02/03 01:18:03;;;;;;;12.20;7.50;;;1.90;99.90;;;;;;4971177;28;20952;-56
2024/02/03 01:20:30;;;;;;;14.23;7.53;;;1.90;99.90;;;;;;4972342;28;20182;-57
2024/02/03 01:22:55;;;;;;;11.57;6.80;;;1.90;99.90;;;;;;4970354;28;20178;-57
2024/02/03 01:25:21;;;;;;;14.43;7.33;;;1.80;99.90;;;;;;4966941;28;20945;-58
2024/02/03 01:27:47;;;;;;;10.97;6.60;;;1.80;99.90;;;;;;4964503;28;20219;-57
2024/02/03 01:30:12;;;;;;;13.03;6.50;;;1.80;99.90;;;;;;4971382;28;20213;-56
2024/02/03 01:32:38;;;;;;;11.80;7.87;;;1.80;99.90;;;;;;4962807;28;20723;-58
2024/02/03 01:35:04;;;;;;;13.03;7.13;;;1.80;99.90;;;;;;4971961;28;20189;-57
2024/02/03 01:37:30;;;;;;;11.97;7.53;;;1.70;99.90;;;;;;4963932;28;20204;-58
2024/02/03 01:39:56;;;;;;;12.40;7.10;;;1.70;99.90;;;;;;4964639;28;20455;-56
2024/02/03 01:42:22;;;;;;;14.10;7.93;;;1.70;99.90;;;;;;4967903;28;20209;-59
2024/02/03 01:44:47;;;;;;;13.17;7.20;;;1.60;99.90;;;;;;4968831;28;20244;-57
2024/02/03 01:47:13;;;;;;;15.40;7.90;;;1.60;99.90;;;;;;4969254;28;20500;-57
2024/02/03 01:49:39;;;;;;;12.37;7.20;;;1.60;99.90;;;;;;4984742;28;20750;-57
2024/02/03 01:52:06;;;;;;;11.33;6.70;;;1.60;99.90;;;;;;4972378;28;20515;-58
2024/02/03 01:54:33;;;;;;;12.60;7.70;;;1.50;99.90;;;;;;4971166;28;20272;-58
2024/02/03 01:56:59;;;;;;;13.03;7.50;;;1.50;99.90;;;;;;4971324;28;20433;-58
2024/02/03 01:59:28;;;;;;;12.10;8.20;;;1.50;99.90;;;;;;4962484;28;20410;-57
2024/02/03 02:01:56;;;;;;;12.93;7.10;;;1.50;99.90;;;;;;4972947;28;20448;-56
2024/02/03 02:04:24;;;;;;;16.03;7.80;;;1.40;99.90;;;;;;4977945;28;20442;-57
2024/02/03 02:06:50;;;;;;;12.77;7.10;;;1.40;99.90;;;;;;4970234;28;20481;-56
2024/02/03 02:09:20;;;;;;;13.30;7.20;;;1.40;99.90;;;;;;4963206;28;20988;-57
2024/02/03 02:11:45;;;;;;;11.00;7.10;;;1.40;99.90;;;;;;4966462;28;20424;-56
2024/02/03 02:14:11;;;;;;;10.93;7.30;;;1.30;99.90;;;;;;4973132;28;20431;-53
2024/02/03 02:16:37;;;;;;;15.20;7.00;;;1.30;99.90;;;;;;4972340;28;20228;-55
2024/02/03 02:19:03;;;;;;;13.20;7.37;;;1.30;99.90;;;;;;4969216;28;20426;-57
2024/02/03 02:21:28;;;;;;;14.03;7.57;;;1.30;99.90;;;;;;4970788;28;20205;-58
2024/02/03 02:23:56;;;;;;;12.27;6.73;;;1.30;99.90;;;;;;4970580;28;20684;-57
2024/02/03 02:26:21;;;;;;;11.40;6.37;;;1.20;99.90;;;;;;4969020;28;20241;-57
2024/02/03 02:28:47;;;;;;;11.37;6.73;;;1.20;99.90;;;;;;4969695;28;20420;-55
2024/02/03 02:31:13;;;;;;;10.80;6.90;;;1.20;99.90;;;;;;4965768;28;20181;-57
2024/02/03 02:33:38;;;;;;;8.40;6.40;;;1.20;99.90;;;;;;4964273;28;20176;-56
2024/02/03 02:36:04;;;;;;;11.30;7.03;;;1.10;99.90;;;;;;4967045;28;20227;-58
2024/02/03 02:38:30;;;;;;;8.90;6.20;;;1.10;99.90;;;;;;4971908;28;20177;-57
2024/02/03 02:40:56;;;;;;;12.70;7.63;;;1.10;99.90;;;;;;4961982;28;20438;-58
2024/02/03 02:43:21;;;;;;;12.10;6.90;;;1.10;99.90;;;;;;4968832;28;20674;-58
2024/02/03 02:45:47;;;;;;;13.40;6.90;;;1.10;99.90;;;;;;4968596;28;20213;-58
2024/02/03 02:48:12;;;;;;;11.60;6.23;;;1.10;99.90;;;;;;4968348;28;20677;-60
2024/02/03 02:50:38;;;;;;;8.97;6.30;;;1.10;99.90;;;;;;4966363;28;20196;-56
2024/02/03 02:53:04;;;;;;;8.30;5.10;;;1.10;99.90;;;;;;4970285;28;20212;-57
2024/02/03 02:55:29;;;;;;;9.57;6.03;;;1.00;99.90;;;;;;4968763;28;20224;-57
2024/02/03 02:57:55;;;;;;;8.93;5.60;;;1.00;99.90;;;;;;4971270;28;20601;-58
2024/02/03 03:00:21;;;;;;;9.87;5.60;;;1.00;99.90;;;;;;4971047;28;20178;-58
2024/02/03 03:02:46;;;;;;;8.40;6.00;;;1.00;99.90;;;;;;4966440;28;20196;-56
2024/02/03 03:05:12;;;;;;;9.33;5.90;;;1.00;99.90;;;;;;4966309;28;20262;-57
2024/02/03 03:07:40;;;;;;;9.30;5.70;;;1.00;99.90;;;;;;4964244;28;20213;-56
2024/02/03 03:10:06;;;;;;;8.37;5.60;;;1.00;99.90;;;;;;4966030;28;20652;-56
2024/02/03 03:12:32;;;;;;;11.57;5.70;;;1.00;99.90;;;;;;4963046;28;20520;-58
2024/02/03 03:14:58;;;;;;;9.90;5.43;;;1.00;99.90;;;;;;4967112;28;20533;-58
2024/02/03 03:17:23;;;;;;;7.53;5.50;;;0.90;99.90;;;;;;4966930;28;20660;-56
2024/02/03 03:19:49;;;;;;;7.60;5.80;;;0.90;99.90;;;;;;4967591;28;20190;-57
2024/02/03 03:22:16;;;;;;;9.33;5.93;;;0.90;99.90;;;;;;4970881;28;20184;-56
2024/02/03 03:24:42;;;;;;;9.10;5.60;;;0.90;99.90;;;;;;4964889;28;20223;-58
2024/02/03 03:27:08;;;;;;;7.50;5.00;;;0.90;99.90;;;;;;4970369;28;20493;-57
2024/02/03 03:29:33;;;;;;;8.90;5.80;;;0.90;99.90;;;;;;4969989;28;20170;-57
2024/02/03 03:31:59;;;;;;;9.37;5.60;;;0.90;99.90;;;;;;4967359;28;20181;-59
2024/02/03 03:34:24;;;;;;;10.60;5.80;;;0.80;99.90;;;;;;4966115;28;20206;-56
2024/02/03 03:36:50;;;;;;;7.30;5.10;;;0.80;99.90;;;;;;4970505;28;20269;-56
2024/02/03 03:39:16;;;;;;;7.63;5.30;;;0.80;99.90;;;;;;4971146;28;20203;-56
2024/02/03 03:41:42;;;;;;;9.40;4.50;;;0.80;99.90;;;;;;4965427;28;20180;-56
2024/02/03 03:44:07;;;;;;;8.57;5.27;;;0.70;99.90;;;;;;4969273;28;20229;-57
2024/02/03 03:46:33;;;;;;;6.73;5.13;;;0.70;99.90;;;;;;4962555;28;20209;-58
2024/02/03 03:48:58;;;;;;;6.40;4.83;;;0.70;99.90;;;;;;4965067;28;20176;-56
2024/02/03 03:51:24;;;;;;;4.83;3.80;;;0.70;99.90;;;;;;4970173;28;20174;-56
2024/02/03 03:53:49;;;;;;;8.83;4.10;;;0.70;99.90;;;;;;4969351;28;20227;-55
2024/02/03 03:56:15;;;;;;;6.70;4.50;;;0.70;99.90;;;;;;4967453;28;20200;-58
2024/02/03 03:58:41;;;;;;;7.40;4.03;;;0.60;99.90;;;;;;4965688;28;20269;-54
2024/02/03 04:01:10;;;;;;;6.20;4.47;;;0.60;99.90;;;;;;4970841;28;20186;-55
2024/02/03 04:03:35;;;;;;;11.00;4.80;;;0.60;99.90;;;;;;4969251;28;20189;-57
2024/02/03 04:06:01;;;;;;;6.47;4.60;;;0.60;99.90;;;;;;4968541;28;20468;-57
2024/02/03 04:08:27;;;;;;;8.10;4.70;;;0.60;99.90;;;;;;4970466;28;20178;-57
2024/02/03 04:10:52;;;;;;;6.27;4.70;;;0.50;99.90;;;;;;4969767;28;20174;-57
2024/02/03 04:13:18;;;;;;;7.33;4.90;;;0.50;99.90;;;;;;4967666;28;20182;-56
2024/02/03 04:15:43;;;;;;;10.70;6.10;;;0.50;99.90;;;;;;4964976;28;20253;-58
2024/02/03 04:18:09;;;;;;;10.47;5.10;;;0.50;99.90;;;;;;4963668;28;20652;-57
2024/02/03 04:20:35;;;;;;;7.80;4.60;;;0.50;99.90;;;;;;4968702;28;20174;-56
2024/02/03 04:23:00;;;;;;;8.47;4.77;;;0.50;99.90;;;;;;4967184;28;20173;-54
2024/02/03 04:25:26;;;;;;;9.63;4.83;;;0.50;99.90;;;;;;4969808;28;20200;-57
2024/02/03 04:27:51;;;;;;;6.60;4.40;;;0.50;99.90;;;;;;4968891;28;20280;-57
2024/02/03 04:30:19;;;;;;;7.73;4.97;;;0.40;99.90;;;;;;4966729;28;20177;-57
2024/02/03 04:32:45;;;;;;;7.40;4.80;;;0.40;99.90;;;;;;4963671;28;20191;-57
2024/02/03 04:35:10;;;;;;;6.27;4.53;;;0.40;99.90;;;;;;4973250;28;21340;-55
2024/02/03 04:37:36;;;;;;;6.97;4.73;;;0.40;99.90;;;;;;4973281;28;20751;-57
2024/02/03 04:40:02;;;;;;;6.70;5.00;;;0.40;99.90;;;;;;4978872;28;20187;-58
2024/02/03 04:42:28;;;;;;;8.23;5.57;;;0.40;99.90;;;;;;4980053;28;20229;-56
2024/02/03 04:44:54;;;;;;;7.57;5.10;;;0.40;99.90;;;;;;4972576;28;20853;-56
2024/02/03 04:47:20;;;;;;;7.97;5.00;;;0.30;99.90;;;;;;4971367;28;20196;-56
2024/02/03 04:49:45;;;;;;;7.13;5.00;;;0.30;99.90;;;;;;4965297;28;20447;-56
2024/02/03 04:52:11;;;;;;;7.83;5.07;;;0.30;99.90;;;;;;4969549;28;20177;-56
2024/02/03 04:54:37;;;;;;;6.83;4.77;;;0.30;99.90;;;;;;4977505;28;20297;-57
2024/02/03 04:57:02;;;;;;;10.67;5.00;;;0.30;99.90;;;;;;4972889;28;20211;-56
2024/02/03 04:59:28;;;;;;;7.67;4.60;;;0.30;99.90;;;;;;4968386;28;20293;-57
2024/02/03 05:01:53;;;;;;;9.80;5.37;;;0.30;99.90;;;;;;4964223;28;20181;-56
2024/02/03 05:04:19;;;;;;;7.80;4.77;;;0.30;99.90;;;;;;4972065;28;20183;-58
2024/02/03 05:06:45;;;;;;;5.90;4.43;;;0.20;99.90;;;;;;4968641;28;20213;-56
2024/02/03 05:09:11;;;;;;;8.00;5.00;;;0.20;99.90;;;;;;4973218;28;20169;-58
2024/02/03 05:11:36;;;;;;;8.77;4.97;;;0.20;99.90;;;;;;4965250;28;20176;-56
2024/02/03 05:14:02;;;;;;;9.70;4.83;;;0.20;99.90;;;;;;4972936;28;20555;-57
2024/02/03 05:16:27;;;;;;;7.10;4.80;;;0.20;99.90;;;;;;4970408;28;20207;-57
2024/02/03 05:18:53;;;;;;;10.63;5.30;;;0.20;99.90;;;;;;4963933;28;20872;-56
2024/02/03 05:21:19;;;;;;;6.90;4.93;;;0.20;99.90;;;;;;4966201;28;20185;-57
2024/02/03 05:23:44;;;;;;;6.10;4.70;;;0.20;99.90;;;;;;4969283;28;20194;-56
2024/02/03 05:26:10;;;;;;;8.10;5.07;;;0.10;99.90;;;;;;4968724;28;20240;-56
2024/02/03 05:28:36;;;;;;;11.87;6.50;;;0.10;99.90;;;;;;4970778;28;20185;-57
2024/02/03 05:31:01;;;;;;;10.57;6.00;;;0.10;99.90;;;;;;4970864;28;20206;-55
2024/02/03 05:33:27;;;;;;;8.23;5.53;;;0.10;99.90;;;;;;4969089;28;20185;-57
2024/02/03 05:35:53;;;;;;;13.90;7.13;;;0.10;99.90;;;;;;4971675;28;20615;-57
2024/02/03 05:38:19;;;;;;;9.30;6.70;;;0.10;99.90;;;;;;4973336;28;20672;-57
2024/02/03 05:40:44;;;;;;;10.00;6.20;;;0.10;99.90;;;;;;4968108;28;20442;-56
2024/02/03 05:43:10;;;;;;;11.80;6.17;;;0.10;99.90;;;;;;4972951;28;20770;-57
2024/02/03 05:45:36;;;;;;;10.23;5.97;;;0.10;99.90;;;;;;4974269;28;20263;-56
2024/02/03 05:48:01;;;;;;;11.57;5.53;;;0.10;99.90;;;;;;4976488;28;20735;-56
2024/02/03 05:50:27;;;;;;;9.20;5.03;;;0.10;99.90;;;;;;4971375;28;20180;-57
2024/02/03 05:52:52;;;;;;;10.63;5.87;;;0.10;99.90;;;;;;4978552;28;20668;-56
2024/02/03 05:55:18;;;;;;;11.73;5.47;;;0.10;99.90;;;;;;4970877;28;20218;-55
2024/02/03 05:57:51;;;;;;;7.63;4.77;;;0.10;99.90;;;;;;4972225;28;20174;-56
2024/02/03 06:00:20;;;;;;;6.83;5.00;;;0.10;99.90;;;;;;4973437;28;20191;-58
2024/02/03 06:02:46;;;;;;;8.67;5.10;;;0.10;99.90;;;;;;4968099;28;20508;-56
2024/02/03 06:05:13;;;;;;;10.53;5.70;;;0.00;99.90;;;;;;4969320;28;20542;-58
2024/02/03 06:07:38;;;;;;;8.60;5.53;;;0.00;99.90;;;;;;4972000;28;20215;-57
2024/02/03 06:10:05;;;;;;;9.90;5.53;;;0.00;99.90;;;;;;4971883;28;20532;-56
2024/02/03 06:12:31;;;;;;;9.33;5.80;;;0.00;99.90;;;;;;4973078;28;20228;-59
2024/02/03 06:14:57;;;;;;;6.43;4.90;;;-0.10;99.90;;;;;;4974812;28;20447;-61
2024/02/03 06:17:22;;;;;;;8.53;5.40;;;-0.10;99.90;;;;;;4972498;28;20622;-57
2024/02/03 06:19:48;;;;;;;10.23;5.30;;;-0.10;99.90;;;;;;4965675;28;20192;-59
2024/02/03 06:22:14;;;;;;;9.20;5.60;;;-0.10;99.90;;;;;;4972975;28;20173;-60
2024/02/03 06:24:40;;;;;;;6.77;5.50;;;-0.20;99.90;;;;;;4968344;28;20291;-58
2024/02/03 06:27:05;;;;;;;9.73;5.77;;;-0.20;99.90;;;;;;4970832;28;21017;-60
2024/02/03 06:29:31;;;;;;;9.30;5.70;;;-0.20;99.90;;;;;;4967021;28;20184;-57
2024/02/03 06:31:57;;;;;;;10.63;6.10;;;-0.20;99.90;;;;;;4969385;28;20178;-60
2024/02/03 06:34:23;;;;;;;7.50;5.23;;;-0.20;99.90;;;;;;4969149;28;20180;-58
2024/02/03 06:36:49;;;;;;;11.13;5.97;;;-0.20;99.90;;;;;;4972871;28;20417;-59
2024/02/03 06:39:15;;;;;;;6.63;4.60;;;-0.30;99.90;;;;;;4967497;28;20980;-58
2024/02/03 06:41:40;;;;;;;9.40;5.00;;;-0.30;99.90;;;;;;4972404;28;20456;-56
2024/02/03 06:44:09;;;;;;;8.60;4.90;;;-0.30;99.90;;;;;;4978816;28;20180;-57
2024/02/03 06:46:34;;;;;;;7.80;4.80;;;-0.30;99.90;;;;;;4973246;28;20211;-57
2024/02/03 06:49:00;;;;;;;8.07;4.50;;;-0.30;99.90;;;;;;4967389;28;20780;-58
2024/02/03 06:51:26;;;;;;;10.13;5.17;;;-0.30;99.90;;;;;;4971827;28;20183;-58
2024/02/03 06:53:51;;;;;;;7.93;5.00;;;-0.30;99.90;;;;;;4978212;28;20183;-57
2024/02/03 06:56:17;;;;;;;5.27;4.57;;;-0.30;99.90;;;;;;4964356;28;20204;-57
2024/02/03 06:58:42;;;;;;;9.03;4.40;;;-0.30;99.90;;;;;;4971642;28;20213;-58
2024/02/03 07:01:08;;;;;;;6.70;4.43;;;-0.30;99.90;;;;;;4971989;28;20195;-58
2024/02/03 07:03:34;;;;;;;10.23;5.67;;;-0.30;99.90;;;;;;4982023;28;20199;-57
2024/02/03 07:05:59;;;;;;;11.50;5.83;;;-0.30;99.90;;;;;;4968978;28;20204;-58
2024/02/03 07:08:25;;;;;;;7.53;4.87;;;-0.30;99.90;;;;;;4971211;28;20180;-58
2024/02/03 07:10:51;;;;;;;8.90;5.80;;;-0.30;99.90;;;;;;4968767;28;20188;-57
2024/02/03 07:13:16;;;;;;;6.70;5.00;;;-0.30;99.90;;;;;;4978502;28;20657;-59
2024/02/03 07:15:42;;;;;;;8.80;6.10;;;-0.30;99.90;;;;;;4970941;28;20207;-58
2024/02/03 07:18:07;;;;;;;10.03;5.90;;;-0.30;99.90;;;;;;4966605;28;20176;-58
2024/02/03 07:20:33;;;;;;;7.37;5.13;;;-0.30;99.90;;;;;;4969721;28;20655;-58
2024/02/03 07:22:58;;;;;;;11.33;5.77;;;-0.30;99.90;;;;;;4969466;28;20215;-60
2024/02/03 07:25:24;;;;;;;9.40;5.73;;;-0.30;99.90;;;;;;4974343;28;20715;-60
2024/02/03 07:27:50;;;;;;;8.97;5.90;;;-0.30;99.90;;;;;;4976749;28;20211;-60
2024/02/03 07:30:15;;;;;;;9.60;5.60;;;-0.30;99.90;;;;;;4971805;28;20739;-58
2024/02/03 07:32:42;;;;;;;8.80;5.83;;;-0.30;99.90;;;;;;4970928;28;20270;-60
2024/02/03 07:35:08;;;;;;;8.90;6.33;;;-0.30;99.90;;;;;;4971269;28;20208;-58
2024/02/03 07:37:35;;;;;;;10.17;6.60;;;-0.20;99.90;;;;;;4969412;28;20442;-58
2024/02/03 07:40:00;;;;;;;10.20;6.33;;;-0.20;99.90;;;;;;4966275;28;20176;-58
2024/02/03 07:42:26;;;;;;;9.73;6.30;;;-0.20;99.90;;;;;;4970694;28;20954;-59
2024/02/03 07:44:52;;;;;;;10.87;6.90;;;-0.20;99.90;;;;;;4971234;28;20597;-58
2024/02/03 07:47:17;;;;;;;9.30;6.10;;;-0.10;99.90;;;;;;4968067;28;20223;-57
2024/02/03 07:49:43;;;;;;;10.80;6.80;;;-0.10;99.90;;;;;;4967989;28;20184;-59
2024/02/03 07:52:08;;;;;;;11.67;8.67;;;-0.10;99.90;;;;;;4962891;28;20241;-58
2024/02/03 07:54:34;;;;;;;13.57;7.83;;;0.00;99.90;;;;;;4971156;28;20218;-59
2024/02/03 07:57:00;;;;;;;10.97;7.73;;;0.00;99.90;;;;;;4960285;28;20188;-60
2024/02/03 07:59:27;;;;;;;14.67;8.23;;;0.00;99.90;;;;;;4972523;28;20181;-58
2024/02/03 08:01:53;;;;;;;9.60;6.33;;;0.10;99.90;;;;;;4961942;28;20191;-58
2024/02/03 08:04:18;;;;;;;11.03;7.70;;;0.20;99.90;;;;;;4966990;28;20431;-58
2024/02/03 08:06:44;;;;;;;10.97;7.30;;;0.30;99.90;;;;;;4970708;28;20196;-61
2024/02/03 08:09:09;;;;;;;9.23;7.37;;;0.30;99.90;;;;;;4970136;28;20172;-57
2024/02/03 08:11:35;;;;;;;13.53;6.83;;;0.40;99.90;;;;;;4973739;28;20670;-58
2024/02/03 08:14:01;;;;;;;10.90;7.30;;;0.40;99.90;;;;;;4967027;28;20185;-58
2024/02/03 08:16:26;;;;;;;11.33;7.03;;;0.40;99.90;;;;;;4978535;28;20275;-60
2024/02/03 08:18:52;;;;;;;13.70;7.43;;;0.40;99.90;;;;;;4974286;28;20193;-59
2024/02/03 08:21:17;;;;;;;11.17;7.50;;;0.50;99.90;;;;;;4974087;28;20192;-58
2024/02/03 08:23:43;;;;;;;14.10;8.00;;;0.50;99.90;;;;;;4973232;28;20188;-58
2024/02/03 08:26:10;;;;;;;11.43;8.23;;;0.50;99.90;;;;;;4966779;28;20216;-58
2024/02/03 08:28:36;;;;;;;11.23;7.10;;;0.60;99.90;;;;;;4973139;28;20188;-59
2024/02/03 08:31:01;;;;;;;11.90;8.27;;;0.60;99.90;;;;;;4971060;28;20457;-57
2024/02/03 08:33:28;;;;;;;11.97;8.20;;;0.70;99.90;;;;;;4969594;28;20180;-58
2024/02/03 08:35:53;;;;;;;16.33;9.23;;;0.80;99.90;;;;;;4975275;28;20196;-59
2024/02/03 08:38:19;;;;;;;13.73;8.83;;;0.90;99.90;;;;;;4972578;28;20467;-59
2024/02/03 08:40:45;;;;;;;17.73;10.13;;;1.00;99.90;;;;;;4975957;28;20178;-57
2024/02/03 08:43:11;;;;;;;21.07;11.37;;;1.10;99.90;;;;;;4974368;28;20180;-57
2024/02/03 08:45:37;;;;;;;21.07;10.67;;;1.10;99.90;;;;;;4963367;28;20220;-57
2024/02/03 08:48:03;;;;;;;23.07;11.47;;;1.20;99.90;;;;;;4971096;28;20472;-58
2024/02/03 08:50:28;;;;;;;17.60;10.47;;;1.30;99.90;;;;;;4968673;28;20990;-57
2024/02/03 08:52:54;;;;;;;19.30;11.17;;;1.40;99.90;;;;;;4968252;28;20429;-59
2024/02/03 08:55:20;;;;;;;16.50;11.00;;;1.50;99.90;;;;;;4970960;28;20193;-58
2024/02/03 08:57:45;;;;;;;25.53;12.53;;;1.60;99.90;;;;;;4975487;28;20243;-60
2024/02/03 09:00:11;;;;;;;16.83;10.80;;;1.70;99.90;;;;;;4973808;28;20265;-59
2024/02/03 09:02:37;;;;;;;18.87;11.10;;;1.80;99.90;;;;;;4970792;28;20185;-59
2024/02/03 09:05:03;;;;;;;24.80;13.77;;;1.90;99.90;;;;;;4967818;28;20452;-58
2024/02/03 09:07:29;;;;;;;24.93;14.60;;;2.00;99.90;;;;;;4973042;28;20193;-60
2024/02/03 09:09:54;;;;;;;18.57;12.30;;;2.10;99.90;;;;;;4973757;28;20205;-58
2024/02/03 09:12:20;;;;;;;16.53;10.07;;;2.20;99.90;;;;;;4978040;28;20178;-60
2024/02/03 09:14:46;;;;;;;17.53;10.40;;;2.40;99.90;;;;;;4962553;28;20201;-60
2024/02/03 09:17:12;;;;;;;20.13;10.77;;;2.50;99.90;;;;;;4971486;28;20510;-57
2024/02/03 09:19:38;;;;;;;17.90;10.07;;;2.60;99.90;;;;;;4976856;28;20261;-56
2024/02/03 09:22:03;;;;;;;15.30;9.40;;;2.70;99.90;;;;;;4963708;28;20568;-58
2024/02/03 09:24:29;;;;;;;17.07;10.40;;;2.80;99.90;;;;;;4972617;28;20228;-58
2024/02/03 09:26:54;;;;;;;23.73;12.37;;;2.90;99.90;;;;;;4965086;28;20233;-57
2024/02/03 09:29:20;;;;;;;23.53;15.50;;;3.00;99.90;;;;;;4972797;28;20185;-59
2024/02/03 09:31:46;;;;;;;31.17;16.63;;;3.20;99.90;;;;;;4968764;28;21417;-58
2024/02/03 09:34:11;;;;;;;32.77;17.87;;;3.40;99.90;;;;;;4970086;28;20201;-56
2024/02/03 09:36:40;;;;;;;27.83;14.77;;;3.60;99.90;;;;;;4969273;28;20680;-57
2024/02/03 09:39:07;;;;;;;25.20;11.10;;;3.70;99.90;;;;;;4965749;28;20185;-57
2024/02/03 09:41:33;;;;;;;17.70;11.47;;;3.90;99.90;;;;;;4963738;28;20874;-59
2024/02/03 09:43:59;;;;;;;16.97;9.20;;;4.00;99.90;;;;;;4962604;28;20447;-59
2024/02/03 09:46:25;;;;;;;11.67;7.30;;;4.20;99.90;;;;;;4960606;28;20918;-60
2024/02/03 09:48:50;;;;;;;14.20;6.60;;;4.40;99.90;;;;;;4968200;28;20188;-58
2024/02/03 09:51:16;;;;;;;11.13;6.53;;;4.70;99.90;;;;;;4967872;28;20613;-59
2024/02/03 09:53:43;;;;;;;9.37;5.90;;;4.90;99.90;;;;;;4968078;28;20272;-57
2024/02/03 09:56:09;;;;;;;10.70;6.60;;;5.20;99.90;;;;;;4963667;28;20639;-59
2024/02/03 09:58:34;;;;;;;9.93;6.40;;;5.40;99.90;;;;;;4966620;28;20509;-58
2024/02/03 10:01:01;;;;;;;12.70;6.80;;;5.60;99.90;;;;;;4962231;28;20183;-57
2024/02/03 10:03:26;;;;;;;10.63;6.20;;;5.90;99.90;;;;;;4960542;28;20182;-58
2024/02/03 10:06:00;;;;;;;10.27;5.90;;;6.10;97.90;;;;;;4962977;28;20547;-57
2024/02/03 10:08:26;;;;;;;6.37;4.60;;;6.30;94.00;;;;;;4966263;28;20708;-59
2024/02/03 10:10:55;;;;;;;11.93;5.80;;;6.60;91.00;;;;;;4964827;28;20457;-58
2024/02/03 10:13:24;;;;;;;6.17;5.00;;;6.70;88.40;;;;;;4963308;28;20417;-57
2024/02/03 10:16:02;;;;;;;7.87;4.97;;;6.80;85.80;;;;;;4961354;28;20465;-58
2024/02/03 10:18:32;;;;;;;9.43;5.30;;;7.00;85.20;;;;;;4963728;28;20827;-58
2024/02/03 10:21:00;;;;;;;8.87;4.97;;;7.10;83.50;;;;;;4967034;28;20429;-59
2024/02/03 10:23:26;;;;;;;5.60;3.80;;;7.20;83.90;;;;;;4961336;28;20422;-58
2024/02/03 10:25:59;;;;;;;4.00;3.60;;;7.40;82.30;;;;;;4964060;28;20459;-58
2024/02/03 10:28:25;;;;;;;5.53;3.80;;;7.50;80.60;;;;;;4960112;28;20242;-57
2024/02/03 10:30:52;;;;;;;5.70;4.00;;;7.60;79.50;;;;;;4967811;28;20840;-59
2024/02/03 10:33:18;;;;;;;4.63;3.27;;;7.70;79.50;;;;;;4960645;28;20198;-60
2024/02/03 10:35:45;;;;;;;4.73;4.10;;;7.80;79.30;;;;;;4968009;28;20505;-57
2024/02/03 10:38:11;;;;;;;6.30;3.30;;;7.90;77.90;;;;;;4962696;28;20187;-58
2024/02/03 10:40:37;;;;;;;6.10;4.10;;;8.10;76.70;;;;;;4967250;28;20434;-58
2024/02/03 10:43:11;;;;;;;5.53;3.80;;;8.20;76.40;;;;;;4961487;28;20179;-58
2024/02/03 10:45:42;;;;;;;15.23;3.90;;;8.30;76.10;;;;;;4964499;28;20469;-56
2024/02/03 10:48:13;;;;;;;6.10;3.73;;;8.50;75.80;;;;;;4958452;28;20464;-57
2024/02/03 10:50:44;;;;;;;8.13;4.07;;;8.70;75.50;;;;;;4967483;28;20436;-58
2024/02/03 10:53:15;;;;;;;7.90;3.90;;;8.80;74.40;;;;;;4965218;28;20437;-56
2024/02/03 10:55:47;;;;;;;13.83;4.07;;;9.00;73.50;;;;;;4964893;28;20430;-61
2024/02/03 10:58:14;;;;;;;10.03;3.67;;;9.10;72.20;;;;;;4962457;28;20414;-59
2024/02/03 11:00:41;;;;;;;4.57;3.57;;;9.20;71.10;;;;;;4962976;28;20437;-57
2024/02/03 11:03:10;;;;;;;5.60;4.00;;;9.30;71.50;;;;;;4977074;28;20434;-59
2024/02/03 11:05:36;;;;;;;7.17;3.77;;;9.50;71.30;;;;;;4967433;28;20825;-58
2024/02/03 11:08:10;;;;;;;7.23;3.80;;;9.60;70.50;;;;;;4957615;28;20464;-59
2024/02/03 11:10:40;;;;;;;8.17;3.93;;;9.70;70.00;;;;;;4960767;28;20430;-57
2024/02/03 11:13:38;;;;;;;8.63;3.70;;;9.80;69.90;;;;;;4963185;28;20410;-58
2024/02/03 11:16:05;;;;;;;5.20;3.83;;;10.00;68.50;;;;;;4958345;28;20444;-57
2024/02/03 11:18:39;;;;;;;8.70;3.80;;;10.10;67.80;;;;;;4960035;28;20434;-58
2024/02/03 11:21:06;;;;;;;9.93;3.63;;;10.20;67.40;;;;;;4959646;28;20471;-60
2024/02/03 11:23:33;;;;;;;8.37;3.50;;;10.40;67.30;;;;;;4959816;28;20430;-59
2024/02/03 11:25:59;;;;;;;6.60;3.90;;;10.50;66.60;;;;;;4961950;28;20495;-57
2024/02/03 11:28:29;;;;;;;5.63;4.00;;;10.60;66.00;;;;;;4964843;28;20420;-56
2024/02/03 11:31:01;;;;;;;4.97;3.27;;;10.70;65.80;;;;;;4962264;28;20576;-58
2024/02/03 11:33:29;;;;;;;5.90;3.27;;;10.90;65.90;;;;;;4960209;28;20475;-57
2024/02/03 11:36:00;;;;;;;3.53;2.83;;;11.00;65.40;;;;;;4965629;28;20627;-58
2024/02/03 11:38:26;;;;;;;4.37;2.77;;;11.20;64.70;;;;;;4960967;28;20435;-57
2024/02/03 11:40:56;;;;;;;3.87;2.97;;;11.30;64.20;;;;;;4961037;28;20425;-57
2024/02/03 11:43:22;;;;;;;4.03;2.90;;;11.50;63.50;;;;;;4963814;28;20958;-60
2024/02/03 11:45:54;;;;;;;4.73;2.70;;;11.60;63.30;;;;;;4972353;28;20452;-60
2024/02/03 11:48:19;;;;;;;3.90;2.70;;;11.70;63.60;;;;;;4969216;28;20469;-57
2024/02/03 11:50:45;;;;;;;4.37;3.03;;;11.80;62.60;;;;;;4965645;28;20488;-59
2024/02/03 11:53:22;;;;;;;7.83;2.87;;;11.90;62.40;;;;;;4967304;28;20225;-58
2024/02/03 11:55:48;;;;;;;5.20;3.67;;;12.10;62.00;;;;;;4964277;28;20480;-58
2024/02/03 11:58:14;;;;;;;3.37;3.03;;;12.20;62.00;;;;;;4971102;28;20467;-58
2024/02/03 12:00:39;;;;;;;4.23;2.97;;;12.30;61.40;;;;;;4968271;28;20182;-56
2024/02/03 12:03:05;;;;;;;4.60;2.93;;;12.40;61.00;;;;;;4967643;28;20264;-57
2024/02/03 12:05:31;;;;;;;3.97;2.87;;;12.60;60.90;;;;;;4971625;28;20193;-58
2024/02/03 12:07:56;;;;;;;3.53;2.00;;;12.70;59.80;;;;;;4964245;28;20724;-59
2024/02/03 12:10:22;;;;;;;1.37;1.27;;;12.90;59.70;;;;;;4962130;28;20175;-58
2024/02/03 12:12:48;;;;;;;2.20;1.53;;;13.10;58.70;;;;;;4967336;28;20221;-58
2024/02/03 12:15:14;;;;;;;1.40;1.30;;;13.30;58.20;;;;;;4966982;28;20201;-55
2024/02/03 12:17:40;;;;;;;1.47;1.37;;;13.50;57.60;;;;;;4966224;28;20236;-57
2024/02/03 12:20:22;;;;;;;1.77;1.60;;;13.70;56.90;;;;;;4964668;28;20432;-57
2024/02/03 12:22:50;;;;;;;1.70;1.50;;;13.80;56.50;;;;;;4966129;28;20584;-57
2024/02/03 12:25:16;;;;;;;1.37;1.27;;;13.90;56.40;;;;;;4969478;28;20453;-59
2024/02/03 12:27:42;;;;;;;2.40;1.80;;;14.00;56.40;;;;;;4965024;28;20472;-57
2024/02/03 12:30:21;;;;;;;2.80;2.13;;;14.10;56.30;;;;;;4965138;28;20248;-57
2024/02/03 12:32:47;;;;;;;4.37;1.80;;;14.20;56.00;;;;;;4971333;28;20416;-58
2024/02/03 12:35:14;;;;;;;1.93;1.50;;;14.20;55.80;;;;;;4965472;28;20484;-58
2024/02/03 12:37:41;;;;;;;1.80;1.70;;;14.20;55.80;;;;;;4965871;28;20429;-58
2024/02/03 12:40:09;;;;;;;1.90;1.60;;;14.30;55.70;;;;;;4965554;28;20437;-57
2024/02/03 12:42:38;;;;;;;1.60;1.50;;;14.30;56.00;;;;;;4971773;28;20445;-57